createdAt,value
2019-04-30T00:01:16.992Z,11.30
2019-04-30T00:03:41.036Z,11.30
2019-04-30T00:06:10.312Z,11.30
2019-04-30T00:08:39.365Z,11.30
2019-04-30T00:11:10.954Z,11.30
2019-04-30T00:13:38.597Z,11.40
2019-04-30T00:16:07.483Z,11.40
2019-04-30T00:18:39.496Z,11.40
2019-04-30T00:21:10.060Z,11.40
2019-04-30T00:23:37.140Z,11.40
2019-04-30T00:26:10.258Z,11.50
2019-04-30T00:28:39.404Z,11.50
2019-04-30T00:31:07.286Z,11.50
2019-04-30T00:33:36.052Z,11.50
2019-04-30T00:36:05.471Z,11.50
2019-04-30T00:38:37.697Z,11.50
2019-04-30T00:41:06.795Z,11.50
2019-04-30T00:43:37.589Z,11.50
2019-04-30T00:46:05.825Z,11.50
2019-04-30T00:48:35.712Z,11.50
2019-04-30T00:51:07.433Z,11.50
2019-04-30T00:53:35.905Z,11.50
2019-04-30T00:56:05.664Z,11.50
2019-04-30T00:58:35.683Z,11.40
2019-04-30T01:01:11.497Z,11.40
2019-04-30T01:03:46.440Z,11.40
2019-04-30T01:06:12.705Z,11.40
2019-04-30T01:08:43.125Z,11.40
2019-04-30T01:11:15.363Z,11.40
2019-04-30T01:13:50.129Z,11.40
2019-04-30T01:16:14.800Z,11.40
2019-04-30T01:18:43.645Z,11.40
2019-04-30T01:21:12.610Z,11.40
2019-04-30T01:23:51.834Z,11.50
2019-04-30T01:26:12.742Z,11.50
2019-04-30T01:28:41.460Z,11.50
2019-04-30T01:31:10.407Z,11.50
2019-04-30T01:33:39.165Z,11.50
2019-04-30T01:36:09.540Z,11.50
2019-04-30T01:38:40.189Z,11.50
2019-04-30T01:41:09.512Z,11.50
2019-04-30T01:43:38.699Z,11.50
2019-04-30T01:46:09.401Z,11.40
2019-04-30T01:48:39.316Z,11.50
2019-04-30T01:51:09.004Z,11.40
2019-04-30T01:53:38.717Z,11.40
2019-04-30T01:56:09.607Z,11.40
2019-04-30T01:58:46.109Z,11.50
2019-04-30T02:01:16.714Z,11.50
2019-04-30T02:03:45.485Z,11.50
2019-04-30T02:06:14.450Z,11.50
2019-04-30T02:08:43.408Z,11.40
2019-04-30T02:11:12.391Z,11.50
2019-04-30T02:13:41.063Z,11.50
2019-04-30T02:16:09.930Z,11.50
2019-04-30T02:18:39.432Z,11.50
2019-04-30T02:21:08.967Z,11.50
2019-04-30T02:23:39.255Z,11.50
2019-04-30T02:26:08.624Z,11.50
2019-04-30T02:28:39.256Z,11.50
2019-04-30T02:31:09.353Z,11.50
2019-04-30T02:33:40.435Z,11.50
2019-04-30T02:36:20.285Z,11.50
2019-04-30T02:38:50.773Z,11.40
2019-04-30T02:41:20.955Z,11.40
2019-04-30T02:43:52.201Z,11.40
2019-04-30T02:46:22.387Z,11.40
2019-04-30T02:48:53.685Z,11.40
2019-04-30T02:51:24.677Z,11.40
2019-04-30T02:54:11.282Z,11.40
2019-04-30T02:56:42.028Z,11.30
2019-04-30T02:59:10.928Z,11.30
2019-04-30T03:01:40.436Z,11.30
2019-04-30T03:04:09.966Z,11.30
2019-04-30T03:06:40.258Z,11.20
2019-04-30T03:09:10.705Z,11.20
2019-04-30T03:11:40.694Z,11.20
2019-04-30T03:14:10.526Z,11.10
2019-04-30T03:16:53.232Z,11.10
2019-04-30T03:19:25.624Z,10.90
2019-04-30T03:22:00.174Z,10.90
2019-04-30T03:24:30.606Z,10.70
2019-04-30T03:26:59.670Z,10.70
2019-04-30T03:29:30.232Z,10.60
2019-04-30T03:32:02.983Z,10.50
2019-04-30T03:34:32.715Z,10.40
2019-04-30T03:37:02.071Z,10.40
2019-04-30T03:39:33.641Z,10.30
2019-04-30T03:42:01.055Z,10.30
2019-04-30T03:44:32.476Z,10.20
2019-04-30T03:47:00.425Z,10.20
2019-04-30T03:49:29.851Z,10.10
2019-04-30T03:51:59.934Z,10.10
2019-04-30T03:54:29.435Z,10.10
2019-04-30T03:57:00.714Z,10.10
2019-04-30T03:59:30.363Z,10.00
2019-04-30T04:02:13.160Z,10.00
2019-04-30T04:04:43.730Z,10.00
2019-04-30T04:07:20.282Z,10.00
2019-04-30T04:10:03.357Z,9.90
2019-04-30T04:12:32.173Z,9.90
2019-04-30T04:15:04.005Z,9.90
2019-04-30T04:17:31.727Z,9.80
2019-04-30T04:20:00.738Z,9.80
2019-04-30T04:22:30.649Z,9.80
2019-04-30T04:25:00.281Z,9.70
2019-04-30T04:27:30.261Z,9.70
2019-04-30T04:30:01.204Z,9.70
2019-04-30T04:32:30.781Z,9.70
2019-04-30T04:35:00.386Z,9.70
2019-04-30T04:37:30.171Z,9.70
2019-04-30T04:39:59.778Z,9.70
2019-04-30T04:42:29.998Z,9.70
2019-04-30T04:44:59.695Z,9.80
2019-04-30T04:47:30.744Z,9.80
2019-04-30T04:50:00.642Z,9.80
2019-04-30T04:52:31.575Z,9.80
2019-04-30T04:55:00.588Z,9.80
2019-04-30T04:57:30.360Z,9.80
2019-04-30T05:00:06.586Z,9.80
2019-04-30T05:02:40.913Z,9.80
2019-04-30T05:05:10.167Z,9.80
2019-04-30T05:07:39.912Z,9.80
2019-04-30T05:10:09.819Z,9.80
2019-04-30T05:12:39.860Z,9.70
2019-04-30T05:15:09.661Z,9.80
2019-04-30T05:17:39.860Z,9.80
2019-04-30T05:20:10.171Z,9.90
2019-04-30T05:22:39.163Z,10.00
2019-04-30T05:25:08.996Z,10.10
2019-04-30T05:27:39.302Z,10.10
2019-04-30T05:30:12.088Z,10.20
2019-04-30T05:32:40.289Z,10.30
2019-04-30T05:35:09.656Z,10.40
2019-04-30T05:37:38.726Z,10.40
2019-04-30T05:40:09.195Z,10.50
2019-04-30T05:42:38.643Z,10.50
2019-04-30T05:45:09.445Z,10.60
2019-04-30T05:47:39.022Z,10.60
2019-04-30T05:50:08.874Z,10.60
2019-04-30T05:52:39.746Z,10.70
2019-04-30T05:55:09.094Z,10.80
2019-04-30T05:57:47.226Z,11.00
2019-04-30T06:00:09.921Z,11.20
2019-04-30T06:02:39.957Z,11.30
2019-04-30T06:05:09.111Z,11.50
2019-04-30T06:07:39.491Z,11.70
2019-04-30T06:10:16.838Z,12.10
2019-04-30T06:12:49.213Z,12.30
2019-04-30T06:15:29.104Z,12.50
2019-04-30T06:18:02.895Z,12.50
2019-04-30T06:20:28.895Z,12.40
2019-04-30T06:22:59.646Z,12.40
2019-04-30T06:25:37.269Z,12.40
2019-04-30T06:28:00.269Z,12.40
2019-04-30T06:30:30.209Z,12.60
2019-04-30T06:32:59.784Z,12.60
2019-04-30T06:35:29.381Z,12.60
2019-04-30T06:37:58.973Z,12.60
2019-04-30T06:40:29.275Z,12.50
2019-04-30T06:43:00.765Z,12.50
2019-04-30T06:45:29.972Z,12.60
2019-04-30T06:48:00.441Z,12.60
2019-04-30T06:50:29.405Z,12.70
2019-04-30T06:53:00.958Z,12.80
2019-04-30T06:55:30.835Z,13.00
2019-04-30T06:58:11.429Z,13.20
2019-04-30T07:00:39.667Z,13.20
2019-04-30T07:03:09.637Z,13.10
2019-04-30T07:05:39.346Z,12.90
2019-04-30T07:08:38.939Z,12.90
2019-04-30T07:11:16.920Z,12.90
2019-04-30T07:13:49.529Z,12.90
2019-04-30T07:16:19.035Z,13.00
2019-04-30T07:18:48.905Z,13.30
2019-04-30T07:21:19.849Z,13.60
2019-04-30T07:23:48.647Z,13.90
2019-04-30T07:26:19.818Z,14.20
2019-04-30T07:28:54.303Z,14.80
2019-04-30T07:31:19.237Z,15.40
2019-04-30T07:33:51.490Z,15.90
2019-04-30T07:36:19.521Z,16.10
2019-04-30T07:38:54.559Z,16.30
2019-04-30T07:41:19.091Z,16.30
2019-04-30T07:43:49.434Z,16.50
2019-04-30T07:46:19.981Z,17.00
2019-04-30T07:48:50.205Z,17.60
2019-04-30T07:51:21.241Z,18.10
2019-04-30T07:53:50.012Z,18.50
2019-04-30T07:56:25.873Z,19.00
2019-04-30T07:58:50.445Z,19.30
2019-04-30T08:01:19.695Z,19.40
2019-04-30T08:04:05.849Z,19.70
2019-04-30T08:06:34.792Z,20.10
2019-04-30T08:09:05.338Z,20.40
2019-04-30T08:11:38.704Z,20.60
2019-04-30T08:14:05.227Z,21.10
2019-04-30T08:16:34.564Z,21.70
2019-04-30T08:19:03.389Z,21.90
2019-04-30T08:21:32.374Z,21.90
2019-04-30T08:24:02.196Z,21.80
2019-04-30T08:26:31.055Z,21.00
2019-04-30T08:28:59.992Z,20.30
2019-04-30T08:31:29.249Z,19.40
2019-04-30T08:33:59.083Z,18.70
2019-04-30T08:36:29.829Z,18.00
2019-04-30T08:38:59.652Z,17.40
2019-04-30T08:41:29.272Z,17.40
2019-04-30T08:43:59.781Z,17.10
2019-04-30T08:46:28.900Z,17.20
2019-04-30T08:48:58.730Z,17.10
2019-04-30T08:51:30.355Z,17.00
2019-04-30T08:53:58.767Z,16.70
2019-04-30T08:56:29.646Z,16.70
2019-04-30T08:58:59.392Z,16.70
2019-04-30T09:01:29.427Z,16.50
2019-04-30T09:03:59.674Z,16.80
2019-04-30T09:06:29.903Z,17.40
2019-04-30T09:08:59.455Z,18.00
2019-04-30T09:11:35.508Z,18.40
2019-04-30T09:13:58.745Z,19.10
2019-04-30T09:16:29.340Z,19.30
2019-04-30T09:18:59.545Z,19.30
2019-04-30T09:21:29.981Z,19.40
2019-04-30T09:23:59.523Z,19.50
2019-04-30T09:26:29.054Z,19.40
2019-04-30T09:28:59.387Z,19.10
2019-04-30T09:31:29.649Z,18.90
2019-04-30T09:34:00.791Z,19.30
2019-04-30T09:36:30.351Z,19.40
2019-04-30T09:39:01.556Z,19.80
2019-04-30T09:41:29.463Z,20.00
2019-04-30T09:43:59.780Z,20.30
2019-04-30T09:46:29.906Z,20.30
2019-04-30T09:48:59.757Z,20.20
2019-04-30T09:51:30.586Z,20.10
2019-04-30T09:54:02.802Z,19.70
2019-04-30T09:56:30.034Z,19.50
2019-04-30T09:58:59.347Z,19.30
2019-04-30T10:01:28.439Z,19.50
2019-04-30T10:03:59.378Z,19.70
2019-04-30T10:06:39.392Z,19.90
2019-04-30T10:08:59.658Z,19.90
2019-04-30T10:11:32.902Z,19.80
2019-04-30T10:14:01.862Z,19.40
2019-04-30T10:16:39.596Z,19.40
2019-04-30T10:19:29.254Z,19.60
2019-04-30T10:21:58.969Z,20.00
2019-04-30T10:24:29.482Z,20.20
2019-04-30T10:26:58.979Z,20.30
2019-04-30T10:29:29.020Z,20.60
2019-04-30T10:31:58.757Z,20.80
2019-04-30T10:34:27.866Z,20.60
2019-04-30T10:36:59.132Z,20.80
2019-04-30T10:39:29.691Z,20.60
2019-04-30T10:41:58.778Z,20.50
2019-04-30T10:44:29.758Z,20.60
2019-04-30T10:46:59.323Z,20.70
2019-04-30T10:49:29.190Z,20.70
2019-04-30T10:51:59.399Z,21.10
2019-04-30T10:54:29.144Z,21.20
2019-04-30T10:56:59.157Z,21.20
2019-04-30T10:59:28.269Z,21.20
2019-04-30T11:01:59.073Z,21.40
2019-04-30T11:04:28.007Z,21.20
2019-04-30T11:07:00.177Z,21.30
2019-04-30T11:09:30.865Z,21.40
2019-04-30T11:12:02.906Z,21.40
2019-04-30T11:14:30.801Z,21.50
2019-04-30T11:17:00.063Z,21.50
2019-04-30T11:19:29.615Z,21.40
2019-04-30T11:21:58.876Z,21.50
2019-04-30T11:24:36.401Z,21.50
2019-04-30T11:26:59.982Z,21.40
2019-04-30T11:29:30.692Z,21.30
2019-04-30T11:32:01.063Z,21.30
2019-04-30T11:34:30.224Z,21.30
2019-04-30T11:36:59.217Z,21.50
2019-04-30T11:39:29.746Z,21.20
2019-04-30T11:41:59.053Z,21.50
2019-04-30T11:44:31.340Z,21.50
2019-04-30T11:47:01.646Z,21.60
2019-04-30T11:49:30.636Z,21.60
2019-04-30T11:51:59.828Z,21.60
2019-04-30T11:54:29.907Z,21.60
2019-04-30T11:56:58.954Z,21.70
2019-04-30T11:59:29.791Z,21.50
2019-04-30T12:01:59.969Z,21.20
2019-04-30T12:04:29.833Z,21.20
2019-04-30T12:07:00.767Z,21.30
2019-04-30T12:09:40.575Z,21.40
2019-04-30T12:12:09.235Z,21.40
2019-04-30T12:14:39.564Z,21.40
2019-04-30T12:17:08.676Z,21.40
2019-04-30T12:19:38.841Z,21.20
2019-04-30T12:22:07.946Z,21.20
2019-04-30T12:24:38.656Z,21.20
2019-04-30T12:27:07.388Z,21.20
2019-04-30T12:29:36.433Z,21.30
2019-04-30T12:32:05.466Z,21.40
2019-04-30T12:34:34.291Z,21.40
2019-04-30T12:37:03.250Z,21.40
2019-04-30T12:39:32.143Z,21.40
2019-04-30T12:42:02.209Z,21.50
2019-04-30T12:44:31.348Z,21.60
2019-04-30T12:47:00.352Z,21.60
2019-04-30T12:49:30.873Z,21.60
2019-04-30T12:52:01.311Z,21.50
2019-04-30T12:54:34.468Z,21.70
2019-04-30T12:57:11.284Z,21.70
2019-04-30T12:59:40.444Z,21.70
2019-04-30T13:02:09.400Z,21.60
2019-04-30T13:04:39.379Z,21.70
2019-04-30T13:07:10.591Z,21.60
2019-04-30T13:09:40.255Z,21.70
2019-04-30T13:12:10.635Z,21.80
2019-04-30T13:14:51.627Z,21.80
2019-04-30T13:17:10.640Z,21.90
2019-04-30T13:19:39.453Z,22.00
2019-04-30T13:22:09.334Z,21.90
2019-04-30T13:24:39.835Z,21.70
2019-04-30T13:27:09.417Z,21.80
2019-04-30T13:29:56.801Z,22.00
2019-04-30T13:32:30.244Z,21.90
2019-04-30T13:35:00.649Z,21.80
2019-04-30T13:37:30.488Z,21.70
2019-04-30T13:40:12.941Z,21.70
2019-04-30T13:42:43.463Z,21.60
2019-04-30T13:45:12.789Z,21.60
2019-04-30T13:47:41.842Z,21.60
2019-04-30T13:50:11.224Z,21.50
2019-04-30T13:52:40.191Z,21.40
2019-04-30T13:55:10.962Z,21.40
2019-04-30T13:57:40.173Z,21.40
2019-04-30T14:00:13.000Z,21.40
2019-04-30T14:03:00.597Z,21.50
2019-04-30T14:05:29.052Z,21.30
2019-04-30T14:07:59.891Z,21.30
2019-04-30T14:10:30.696Z,21.20
2019-04-30T14:13:01.167Z,21.20
2019-04-30T14:15:30.147Z,21.10
2019-04-30T14:17:59.764Z,21.10
2019-04-30T14:20:28.715Z,21.20
2019-04-30T14:22:57.864Z,21.20
2019-04-30T14:25:27.075Z,21.10
2019-04-30T14:27:55.815Z,21.00
2019-04-30T14:30:24.902Z,21.10
2019-04-30T14:32:53.957Z,21.10
2019-04-30T14:35:22.781Z,21.10
2019-04-30T14:37:51.683Z,21.00
2019-04-30T14:40:21.204Z,21.00
2019-04-30T14:42:54.893Z,20.70
2019-04-30T14:45:29.183Z,20.70
2019-04-30T14:48:01.136Z,20.70
2019-04-30T14:50:32.088Z,20.70
2019-04-30T14:53:05.396Z,20.70
2019-04-30T14:55:52.701Z,20.70
2019-04-30T14:58:39.329Z,20.60
2019-04-30T15:01:21.949Z,20.50
2019-04-30T15:03:50.860Z,20.20
2019-04-30T15:06:19.900Z,20.00
2019-04-30T15:08:49.504Z,19.80
2019-04-30T15:11:19.083Z,19.60
2019-04-30T15:13:49.405Z,19.40
2019-04-30T15:16:18.320Z,19.20
2019-04-30T15:18:47.307Z,19.10
2019-04-30T15:21:16.093Z,19.00
2019-04-30T15:23:58.723Z,19.00
2019-04-30T15:26:25.035Z,19.00
2019-04-30T15:28:53.126Z,18.90
2019-04-30T15:31:22.209Z,18.90
2019-04-30T15:34:02.255Z,18.90
2019-04-30T15:36:23.145Z,19.00
2019-04-30T15:38:56.435Z,19.10
2019-04-30T15:41:25.427Z,19.10
2019-04-30T15:43:54.417Z,19.20
2019-04-30T15:46:23.892Z,19.30
2019-04-30T15:48:52.707Z,19.30
2019-04-30T15:51:23.007Z,19.30
2019-04-30T15:53:51.915Z,19.40
2019-04-30T15:56:20.714Z,19.30
2019-04-30T15:59:08.992Z,19.30
2019-04-30T16:01:39.402Z,19.30
2019-04-30T16:04:10.348Z,19.30
2019-04-30T16:06:39.499Z,19.30
2019-04-30T16:09:11.749Z,19.40
2019-04-30T16:11:42.147Z,19.40
2019-04-30T16:14:21.725Z,19.40
2019-04-30T16:17:04.397Z,19.40
2019-04-30T16:19:33.447Z,19.30
2019-04-30T16:22:02.293Z,19.20
2019-04-30T16:24:31.234Z,19.00
2019-04-30T16:27:00.097Z,19.00
2019-04-30T16:29:29.029Z,18.90
2019-04-30T16:31:59.166Z,18.80
2019-04-30T16:34:30.162Z,18.80
2019-04-30T16:36:59.104Z,18.80
2019-04-30T16:39:28.814Z,18.70
2019-04-30T16:41:59.184Z,18.70
2019-04-30T16:44:28.432Z,18.70
2019-04-30T16:46:59.516Z,18.60
2019-04-30T16:49:29.013Z,18.60
2019-04-30T16:51:59.051Z,18.50
2019-04-30T16:54:28.532Z,18.40
2019-04-30T16:57:04.266Z,18.30
2019-04-30T16:59:35.471Z,18.20
2019-04-30T17:02:04.463Z,18.10
2019-04-30T17:04:48.956Z,18.00
2019-04-30T17:07:25.316Z,17.80
2019-04-30T17:10:09.072Z,17.60
2019-04-30T17:12:42.153Z,17.50
2019-04-30T17:15:15.435Z,17.30
2019-04-30T17:17:44.371Z,17.20
2019-04-30T17:20:13.566Z,17.10
2019-04-30T17:22:42.351Z,16.90
2019-04-30T17:25:11.242Z,16.80
2019-04-30T17:27:40.282Z,16.70
2019-04-30T17:30:11.094Z,16.50
2019-04-30T17:32:40.063Z,16.40
2019-04-30T17:35:09.748Z,16.20
2019-04-30T17:37:38.548Z,16.10
2019-04-30T17:40:09.443Z,15.90
2019-04-30T17:42:38.532Z,15.80
2019-04-30T17:45:09.495Z,15.70
2019-04-30T17:47:38.487Z,15.60
2019-04-30T17:50:08.985Z,15.40
2019-04-30T17:52:37.943Z,15.30
2019-04-30T17:55:09.684Z,15.10
2019-04-30T17:57:40.267Z,15.00
2019-04-30T18:00:18.958Z,14.90
2019-04-30T18:02:42.298Z,14.70
2019-04-30T18:05:11.548Z,14.60
2019-04-30T18:07:40.305Z,14.40
2019-04-30T18:10:11.219Z,14.40
2019-04-30T18:12:40.582Z,14.20
2019-04-30T18:15:15.734Z,14.20
2019-04-30T18:17:46.189Z,14.10
2019-04-30T18:20:23.067Z,14.00
2019-04-30T18:22:53.748Z,13.90
2019-04-30T18:25:27.430Z,13.80
2019-04-30T18:28:04.131Z,13.70
2019-04-30T18:30:39.088Z,13.70
2019-04-30T18:33:09.884Z,13.60
2019-04-30T18:35:38.880Z,13.50
2019-04-30T18:38:09.732Z,13.40
2019-04-30T18:40:39.749Z,13.30
2019-04-30T18:43:09.000Z,13.20
2019-04-30T18:45:39.480Z,13.20
2019-04-30T18:48:09.738Z,13.10
2019-04-30T18:50:38.834Z,13.10
2019-04-30T18:53:09.473Z,13.00
2019-04-30T18:55:38.343Z,13.00
2019-04-30T18:58:08.813Z,13.00
2019-04-30T19:00:42.310Z,13.00
2019-04-30T19:03:11.575Z,13.00
2019-04-30T19:05:42.160Z,13.00
2019-04-30T19:08:25.022Z,13.00
2019-04-30T19:11:04.442Z,13.00
2019-04-30T19:13:51.660Z,12.90
2019-04-30T19:16:25.489Z,12.90
2019-04-30T19:18:54.254Z,12.80
2019-04-30T19:21:23.558Z,12.80
2019-04-30T19:23:52.433Z,12.70
2019-04-30T19:26:21.296Z,12.70
2019-04-30T19:28:50.212Z,12.60
2019-04-30T19:31:19.880Z,12.50
2019-04-30T19:33:49.151Z,12.50
2019-04-30T19:36:20.895Z,12.50
2019-04-30T19:38:50.699Z,12.40
2019-04-30T19:41:19.877Z,12.40
2019-04-30T19:43:50.063Z,12.40
2019-04-30T19:46:19.291Z,12.30
2019-04-30T19:48:50.432Z,12.30
2019-04-30T19:51:19.764Z,12.20
2019-04-30T19:53:49.149Z,12.10
2019-04-30T19:56:18.330Z,12.10
2019-04-30T19:58:59.514Z,12.00
2019-04-30T20:01:19.080Z,11.90
2019-04-30T20:03:48.098Z,11.90
2019-04-30T20:06:19.113Z,11.90
2019-04-30T20:08:48.204Z,11.80
2019-04-30T20:11:17.447Z,11.80
2019-04-30T20:13:46.459Z,11.70
2019-04-30T20:16:15.399Z,11.70
2019-04-30T20:18:44.467Z,11.60
2019-04-30T20:21:27.594Z,11.60
2019-04-30T20:23:48.389Z,11.50
2019-04-30T20:26:17.309Z,11.50
2019-04-30T20:28:46.161Z,11.50
2019-04-30T20:31:15.008Z,11.50
2019-04-30T20:33:43.820Z,11.40
2019-04-30T20:36:12.832Z,11.40
2019-04-30T20:38:46.640Z,11.30
2019-04-30T20:41:15.532Z,11.30
2019-04-30T20:43:44.421Z,11.20
2019-04-30T20:46:13.309Z,11.10
2019-04-30T20:48:42.185Z,11.00
2019-04-30T20:51:10.902Z,11.00
2019-04-30T20:53:41.066Z,10.90
2019-04-30T20:56:10.078Z,10.90
2019-04-30T20:58:54.171Z,10.70
2019-04-30T21:01:09.722Z,10.70
2019-04-30T21:03:39.587Z,10.70
2019-04-30T21:06:08.971Z,10.60
2019-04-30T21:08:38.313Z,10.50
2019-04-30T21:11:09.299Z,10.50
2019-04-30T21:13:39.212Z,10.50
2019-04-30T21:16:08.228Z,10.40
2019-04-30T21:18:39.052Z,10.50
2019-04-30T21:21:07.327Z,10.50
2019-04-30T21:23:36.046Z,10.40
2019-04-30T21:26:05.042Z,10.50
2019-04-30T21:28:33.919Z,10.50
2019-04-30T21:31:04.562Z,10.50
2019-04-30T21:33:34.974Z,10.50
2019-04-30T21:36:08.786Z,10.60
2019-04-30T21:38:38.954Z,10.60
2019-04-30T21:41:09.980Z,10.70
2019-04-30T21:43:38.632Z,10.80
2019-04-30T21:46:09.354Z,10.90
2019-04-30T21:48:38.865Z,10.90
2019-04-30T21:51:09.393Z,10.90
2019-04-30T21:53:39.562Z,11.00
2019-04-30T21:56:08.860Z,11.00
2019-04-30T21:58:39.271Z,11.10
2019-04-30T22:01:12.964Z,11.10
2019-04-30T22:03:43.769Z,11.10
2019-04-30T22:06:12.846Z,11.10
2019-04-30T22:08:41.632Z,11.20
2019-04-30T22:11:10.642Z,11.20
2019-04-30T22:13:40.028Z,11.20
2019-04-30T22:16:09.934Z,11.20
2019-04-30T22:18:38.923Z,11.20
2019-04-30T22:21:07.915Z,11.20
2019-04-30T22:23:37.156Z,11.10
2019-04-30T22:26:06.305Z,11.10
2019-04-30T22:28:35.110Z,11.00
2019-04-30T22:31:04.238Z,11.00
2019-04-30T22:33:33.280Z,11.00
2019-04-30T22:36:03.810Z,10.90
2019-04-30T22:38:38.900Z,10.80
2019-04-30T22:41:08.860Z,10.80
2019-04-30T22:43:37.816Z,10.80
2019-04-30T22:46:09.761Z,10.70
2019-04-30T22:48:38.805Z,10.70
2019-04-30T22:51:07.477Z,10.60
2019-04-30T22:53:36.274Z,10.60
2019-04-30T22:56:05.518Z,10.60
2019-04-30T22:58:34.352Z,10.60
2019-04-30T23:01:14.001Z,10.50
2019-04-30T23:03:42.992Z,10.50
2019-04-30T23:06:12.018Z,10.50
2019-04-30T23:08:40.966Z,10.50
2019-04-30T23:11:09.850Z,10.50
2019-04-30T23:13:38.740Z,10.50
2019-04-30T23:16:07.864Z,10.50
2019-04-30T23:18:36.720Z,10.50
2019-04-30T23:21:05.479Z,10.50
2019-04-30T23:23:34.418Z,10.40
2019-04-30T23:26:03.384Z,10.40
2019-04-30T23:28:32.150Z,10.30
2019-04-30T23:31:01.206Z,10.40
2019-04-30T23:33:30.484Z,10.30
2019-04-30T23:35:59.194Z,10.30
2019-04-30T23:38:28.337Z,10.20
2019-04-30T23:40:57.192Z,10.20
2019-04-30T23:43:26.010Z,10.20
2019-04-30T23:45:54.840Z,10.20
2019-04-30T23:48:23.576Z,10.10
2019-04-30T23:50:52.289Z,10.10
2019-04-30T23:53:21.052Z,10.10
2019-04-30T23:55:50.072Z,10.00
2019-04-30T23:58:18.708Z,10.00
